Nyk Constellation — V7NP4 — position and weather

sailwx.info

Track history (hours):
 
Tides and Currents Weather Stations Pressure Air Temp Water Temp Dewpoint Dewpoint Depression Visibility Wind Speed Wind Dir Waves Ship Positions

Nyk Constellation

Last reported at 2015-Jul-02 15:27 UTC. Time now 2015-Jul-02 16:36 UTC.
Position N 34°30' E 138°36'.

Length 294 m; draft 10.7 m.

Type: Cargo ship. MMSI: 538002992.

Date/timePositionNaut miles runAvg speedWind from/ knotsBaromVisibWave heightAir tempDewpointWater temp
2015-Jul-02 15:27N 34°30' E 138°36'186 5.0
2015-Jul-01 02:23N 33°50' E 134°57'1416.9
2015-Jul-01 01:33N 34°04' E 134°57'1110.8
2015-Jul-01 00:33N 34°15' E 134°58'1616.0
2015-Jun-30 23:33N 34°29' E 135°08'1413.7
2015-Jun-30 22:33N 34°39' E 135°18'2 1.6
2015-Jun-30 21:32N 34°41' E 135°17'0 0.0
2015-Jun-30 20:32N 34°41' E 135°17'0 0.0
2015-Jun-30 19:26N 34°41' E 135°17'0 0.0
2015-Jun-30 18:32N 34°41' E 135°17'0 0.0
2015-Jun-30 17:32N 34°41' E 135°17'0 0.0
2015-Jun-30 16:32N 34°41' E 135°17'0 0.0
2015-Jun-30 15:32N 34°41' E 135°17'0 0.0
2015-Jun-30 14:32N 34°41' E 135°17'0 0.0
2015-Jun-30 12:32N 34°41' E 135°17'0 0.0
2015-Jun-30 11:32N 34°41' E 135°17'0 0.0
2015-Jun-30 10:32N 34°41' E 135°17'0 0.0
2015-Jun-30 09:26N 34°41' E 135°17'0 0.0
2015-Jun-30 08:32N 34°41' E 135°17'0 0.0
2015-Jun-30 07:33N 34°41' E 135°17'5 5.3
2015-Jun-30 06:33N 34°36' E 135°17'1818.4
2015-Jun-30 05:33N 34°21' E 135°03'1313.1
2015-Jun-30 04:33N 34°09' E 134°59'8 7.5
2015-Jun-30 03:33N 34°01' E 134°58'8 8.0
2015-Jun-30 02:32N 33°53' E 134°58'  
2015-Jun-26 19:33N 30°38' E 123°01'1818.1
2015-Jun-26 18:33N 30°33' E 122°41'1616.4
2015-Jun-26 17:33N 30°32' E 122°22'1313.1
2015-Jun-26 16:33N 30°35' E 122°07'2 0.2
2015-Jun-26 02:33N 30°36' E 122°05'9 8.6
2015-Jun-26 01:32N 30°34' E 122°15'8 7.9
2015-Jun-26 00:30N 30°33' E 122°24'2 2.3
2015-Jun-25 23:27N 30°32' E 122°26'8 9.0
2015-Jun-25 22:33N 30°30' E 122°36'2 0.1
2015-Jun-25 06:33N 30°28' E 122°37'8 7.8
2015-Jun-25 05:34N 30°33' E 122°44'2117.1
2015-Jun-25 04:19N 30°38' E 123°08'1316.8
2015-Jun-25 03:33N 30°37' E 123°23'  
2015-Jun-22 17:33N 34°58' E 139°31'1514.5
2015-Jun-22 16:33N 35°08' E 139°45'1110.8
2015-Jun-22 15:33N 35°18' E 139°44'  
Track history (hours):
 
Tides and Currents Weather Stations Pressure Air Temp Water Temp Dewpoint Dewpoint Depression Visibility Wind Speed Wind Dir Waves Ship Positions

Nyk Constellation

Last reported at 2015-Jul-02 15:27 UTC. Time now 2015-Jul-02 16:36 UTC.
Position N 34°30' E 138°36'.

Length 294 m; draft 10.7 m.

Type: Cargo ship. MMSI: 538002992.

Date/timePositionNaut miles runAvg speedWind from/ knotsBaromVisibWave heightAir tempDewpointWater temp
2015-Jul-02 15:27N 34°30' E 138°36'186 5.0
2015-Jul-01 02:23N 33°50' E 134°57'1416.9
2015-Jul-01 01:33N 34°04' E 134°57'1110.8
2015-Jul-01 00:33N 34°15' E 134°58'1616.0
2015-Jun-30 23:33N 34°29' E 135°08'1413.7
2015-Jun-30 22:33N 34°39' E 135°18'2 1.6
2015-Jun-30 21:32N 34°41' E 135°17'0 0.0
2015-Jun-30 20:32N 34°41' E 135°17'0 0.0
2015-Jun-30 19:26N 34°41' E 135°17'0 0.0
2015-Jun-30 18:32N 34°41' E 135°17'0 0.0
2015-Jun-30 17:32N 34°41' E 135°17'0 0.0
2015-Jun-30 16:32N 34°41' E 135°17'0 0.0
2015-Jun-30 15:32N 34°41' E 135°17'0 0.0
2015-Jun-30 14:32N 34°41' E 135°17'0 0.0
2015-Jun-30 12:32N 34°41' E 135°17'0 0.0
2015-Jun-30 11:32N 34°41' E 135°17'0 0.0
2015-Jun-30 10:32N 34°41' E 135°17'0 0.0
2015-Jun-30 09:26N 34°41' E 135°17'0 0.0
2015-Jun-30 08:32N 34°41' E 135°17'0 0.0
2015-Jun-30 07:33N 34°41' E 135°17'5 5.3
2015-Jun-30 06:33N 34°36' E 135°17'1818.4
2015-Jun-30 05:33N 34°21' E 135°03'1313.1
2015-Jun-30 04:33N 34°09' E 134°59'8 7.5
2015-Jun-30 03:33N 34°01' E 134°58'8 8.0
2015-Jun-30 02:32N 33°53' E 134°58'  
2015-Jun-26 19:33N 30°38' E 123°01'1818.1
2015-Jun-26 18:33N 30°33' E 122°41'1616.4
2015-Jun-26 17:33N 30°32' E 122°22'1313.1
2015-Jun-26 16:33N 30°35' E 122°07'2 0.2
2015-Jun-26 02:33N 30°36' E 122°05'9 8.6
2015-Jun-26 01:32N 30°34' E 122°15'8 7.9
2015-Jun-26 00:30N 30°33' E 122°24'2 2.3
2015-Jun-25 23:27N 30°32' E 122°26'8 9.0
2015-Jun-25 22:33N 30°30' E 122°36'2 0.1
2015-Jun-25 06:33N 30°28' E 122°37'8 7.8
2015-Jun-25 05:34N 30°33' E 122°44'2117.1
2015-Jun-25 04:19N 30°38' E 123°08'1316.8
2015-Jun-25 03:33N 30°37' E 123°23'  
2015-Jun-22 17:33N 34°58' E 139°31'1514.5
2015-Jun-22 16:33N 35°08' E 139°45'1110.8
2015-Jun-22 15:33N 35°18' E 139°44'  

Dump ship's entire track history